sensor_id;sensor_type;location;lat;lon;timestamp;P1;durP1;ratioP1;P2;durP2;ratioP2
77415;SDS011;66489;49.230;8.520;2023-02-28T05:03:00;8.32;;;4.60;;
77415;SDS011;66489;49.230;8.520;2023-02-28T05:05:26;9.85;;;4.88;;
77415;SDS011;66489;49.230;8.520;2023-02-28T05:07:53;8.43;;;4.13;;
77415;SDS011;66489;49.230;8.520;2023-02-28T05:10:22;7.63;;;4.70;;
77415;SDS011;66489;49.230;8.520;2023-02-28T05:12:48;10.00;;;4.70;;
77415;SDS011;66489;49.230;8.520;2023-02-28T05:15:15;8.02;;;4.47;;
77415;SDS011;66489;49.230;8.520;2023-02-28T05:17:42;8.32;;;4.60;;
77415;SDS011;66489;49.230;8.520;2023-02-28T05:20:09;10.68;;;5.00;;
77415;SDS011;66489;49.230;8.520;2023-02-28T05:22:43;7.78;;;4.53;;
77415;SDS011;66489;49.230;8.520;2023-02-28T05:25:13;9.18;;;4.85;;
77415;SDS011;66489;49.230;8.520;2023-02-28T05:27:43;8.98;;;4.35;;
77415;SDS011;66489;49.230;8.520;2023-02-28T05:30:10;8.65;;;4.65;;
77415;SDS011;66489;49.230;8.520;2023-02-28T05:32:37;9.02;;;4.43;;
77415;SDS011;66489;49.230;8.520;2023-02-28T05:35:04;9.48;;;4.90;;
77415;SDS011;66489;49.230;8.520;2023-02-28T05:37:31;9.13;;;4.80;;
77415;SDS011;66489;49.230;8.520;2023-02-28T05:39:57;7.35;;;4.30;;
77415;SDS011;66489;49.230;8.520;2023-02-28T05:42:24;8.55;;;4.90;;
77415;SDS011;66489;49.230;8.520;2023-02-28T05:44:51;8.65;;;4.72;;
77415;SDS011;66489;49.230;8.520;2023-02-28T05:47:18;9.18;;;5.00;;
77415;SDS011;66489;49.230;8.520;2023-02-28T05:49:44;10.75;;;5.50;;
77415;SDS011;66489;49.230;8.520;2023-02-28T05:52:11;10.93;;;4.88;;
77415;SDS011;66489;49.230;8.520;2023-02-28T05:54:37;9.45;;;5.05;;
77415;SDS011;66489;49.230;8.520;2023-02-28T05:57:04;10.60;;;5.15;;
77415;SDS011;66489;49.230;8.520;2023-02-28T05:59:40;10.70;;;4.65;;
77415;SDS011;66489;49.230;8.520;2023-02-28T06:02:13;10.45;;;4.90;;
77415;SDS011;66489;49.230;8.520;2023-02-28T06:04:41;11.70;;;5.03;;
77415;SDS011;66489;49.230;8.520;2023-02-28T06:07:08;9.30;;;4.25;;
77415;SDS011;66489;49.230;8.520;2023-02-28T06:09:35;8.50;;;4.60;;
77415;SDS011;66489;49.230;8.520;2023-02-28T06:12:02;11.05;;;5.18;;
77415;SDS011;66489;49.230;8.520;2023-02-28T06:16:58;9.88;;;4.88;;
77415;SDS011;66489;49.230;8.520;2023-02-28T06:19:25;7.80;;;4.57;;
77415;SDS011;66489;49.230;8.520;2023-02-28T06:21:52;8.55;;;3.90;;
77415;SDS011;66489;49.230;8.520;2023-02-28T06:24:20;8.82;;;4.85;;
77415;SDS011;66489;49.230;8.520;2023-02-28T06:26:47;8.85;;;4.88;;
77415;SDS011;66489;49.230;8.520;2023-02-28T06:29:14;10.85;;;5.10;;
77415;SDS011;66489;49.230;8.520;2023-02-28T06:31:45;9.73;;;5.10;;
77415;SDS011;66489;49.230;8.520;2023-02-28T06:34:12;10.07;;;4.65;;
77415;SDS011;66489;49.230;8.520;2023-02-28T06:36:39;9.57;;;5.25;;
77415;SDS011;66489;49.230;8.520;2023-02-28T06:39:07;9.02;;;4.45;;
77415;SDS011;66489;49.230;8.520;2023-02-28T06:41:34;8.18;;;4.90;;
77415;SDS011;66489;49.230;8.520;2023-02-28T06:44:19;9.35;;;5.07;;
77415;SDS011;66489;49.230;8.520;2023-02-28T06:46:46;10.20;;;5.00;;
77415;SDS011;66489;49.230;8.520;2023-02-28T06:49:13;10.77;;;4.68;;
77415;SDS011;66489;49.230;8.520;2023-02-28T06:51:41;9.98;;;4.75;;
77415;SDS011;66489;49.230;8.520;2023-02-28T06:54:11;10.32;;;5.40;;
77415;SDS011;66489;49.230;8.520;2023-02-28T06:56:38;8.68;;;4.80;;
77415;SDS011;66489;49.230;8.520;2023-02-28T06:59:05;13.95;;;5.70;;
77415;SDS011;66489;49.230;8.520;2023-02-28T07:01:32;8.57;;;5.00;;
77415;SDS011;66489;49.230;8.520;2023-02-28T07:03:59;9.63;;;5.00;;
77415;SDS011;66489;49.230;8.520;2023-02-28T07:06:26;10.95;;;5.57;;
77415;SDS011;66489;49.230;8.520;2023-02-28T07:08:53;10.50;;;5.70;;
77415;SDS011;66489;49.230;8.520;2023-02-28T07:11:21;8.80;;;4.80;;
77415;SDS011;66489;49.230;8.520;2023-02-28T07:13:49;10.23;;;5.72;;
77415;SDS011;66489;49.230;8.520;2023-02-28T07:16:17;10.40;;;5.15;;
77415;SDS011;66489;49.230;8.520;2023-02-28T07:18:44;9.75;;;5.38;;
77415;SDS011;66489;49.230;8.520;2023-02-28T07:21:11;10.98;;;5.57;;
77415;SDS011;66489;49.230;8.520;2023-02-28T07:23:38;8.50;;;4.70;;
77415;SDS011;66489;49.230;8.520;2023-02-28T07:26:05;10.45;;;5.47;;
77415;SDS011;66489;49.230;8.520;2023-02-28T07:28:32;10.18;;;5.32;;
77415;SDS011;66489;49.230;8.520;2023-02-28T07:31:03;11.32;;;5.22;;
77415;SDS011;66489;49.230;8.520;2023-02-28T07:33:33;8.98;;;5.32;;
77415;SDS011;66489;49.230;8.520;2023-02-28T07:36:04;10.38;;;5.88;;
77415;SDS011;66489;49.230;8.520;2023-02-28T07:38:35;10.15;;;5.68;;
77415;SDS011;66489;49.230;8.520;2023-02-28T07:41:03;11.27;;;5.82;;
77415;SDS011;66489;49.230;8.520;2023-02-28T07:46:06;9.07;;;5.15;;
77415;SDS011;66489;49.230;8.520;2023-02-28T07:48:36;12.90;;;6.15;;
77415;SDS011;66489;49.230;8.520;2023-02-28T07:51:03;11.02;;;5.70;;
77415;SDS011;66489;49.230;8.520;2023-02-28T07:53:29;11.95;;;6.50;;
77415;SDS011;66489;49.230;8.520;2023-02-28T07:55:56;10.13;;;6.18;;
77415;SDS011;66489;49.230;8.520;2023-02-28T07:58:24;11.02;;;5.60;;
77415;SDS011;66489;49.230;8.520;2023-02-28T08:00:51;11.27;;;5.93;;
77415;SDS011;66489;49.230;8.520;2023-02-28T08:03:19;12.00;;;5.93;;
77415;SDS011;66489;49.230;8.520;2023-02-28T08:05:46;11.80;;;5.90;;
77415;SDS011;66489;49.230;8.520;2023-02-28T08:08:14;11.68;;;6.00;;
77415;SDS011;66489;49.230;8.520;2023-02-28T08:10:41;12.02;;;6.20;;
77415;SDS011;66489;49.230;8.520;2023-02-28T08:13:08;11.45;;;6.18;;
77415;SDS011;66489;49.230;8.520;2023-02-28T08:15:35;10.98;;;6.10;;
77415;SDS011;66489;49.230;8.520;2023-02-28T08:18:02;10.75;;;5.80;;
77415;SDS011;66489;49.230;8.520;2023-02-28T08:20:29;11.60;;;6.28;;
77415;SDS011;66489;49.230;8.520;2023-02-28T08:22:56;10.73;;;5.95;;
77415;SDS011;66489;49.230;8.520;2023-02-28T08:25:23;14.23;;;8.23;;
77415;SDS011;66489;49.230;8.520;2023-02-28T08:27:50;16.20;;;9.77;;
77415;SDS011;66489;49.230;8.520;2023-02-28T08:30:18;11.98;;;7.05;;
77415;SDS011;66489;49.230;8.520;2023-02-28T08:32:44;10.93;;;5.88;;
77415;SDS011;66489;49.230;8.520;2023-02-28T08:35:11;11.40;;;6.35;;
77415;SDS011;66489;49.230;8.520;2023-02-28T08:37:37;16.52;;;8.07;;
77415;SDS011;66489;49.230;8.520;2023-02-28T08:40:04;12.90;;;7.28;;
77415;SDS011;66489;49.230;8.520;2023-02-28T08:42:31;11.52;;;6.60;;
77415;SDS011;66489;49.230;8.520;2023-02-28T08:44:58;11.05;;;6.40;;
77415;SDS011;66489;49.230;8.520;2023-02-28T08:47:25;12.60;;;7.13;;
77415;SDS011;66489;49.230;8.520;2023-02-28T08:49:51;10.82;;;6.35;;
77415;SDS011;66489;49.230;8.520;2023-02-28T08:52:18;15.25;;;8.13;;
77415;SDS011;66489;49.230;8.520;2023-02-28T08:54:44;11.77;;;6.68;;
77415;SDS011;66489;49.230;8.520;2023-02-28T08:57:11;11.45;;;6.60;;
77415;SDS011;66489;49.230;8.520;2023-02-28T08:59:37;10.93;;;5.93;;
77415;SDS011;66489;49.230;8.520;2023-02-28T09:02:04;11.98;;;6.90;;
77415;SDS011;66489;49.230;8.520;2023-02-28T09:04:30;11.38;;;6.68;;
77415;SDS011;66489;49.230;8.520;2023-02-28T09:06:57;12.25;;;6.95;;
77415;SDS011;66489;49.230;8.520;2023-02-28T09:09:24;13.38;;;6.70;;
77415;SDS011;66489;49.230;8.520;2023-02-28T09:11:55;12.60;;;6.90;;
77415;SDS011;66489;49.230;8.520;2023-02-28T09:14:22;9.73;;;6.30;;
77415;SDS011;66489;49.230;8.520;2023-02-28T09:16:49;9.93;;;5.75;;
77415;SDS011;66489;49.230;8.520;2023-02-28T09:19:15;11.82;;;6.85;;
77415;SDS011;66489;49.230;8.520;2023-02-28T09:21:42;10.88;;;6.43;;
77415;SDS011;66489;49.230;8.520;2023-02-28T09:24:08;11.23;;;6.55;;
77415;SDS011;66489;49.230;8.520;2023-02-28T09:26:37;13.52;;;7.13;;
77415;SDS011;66489;49.230;8.520;2023-02-28T09:29:08;12.50;;;6.68;;
77415;SDS011;66489;49.230;8.520;2023-02-28T09:31:35;10.68;;;6.18;;
77415;SDS011;66489;49.230;8.520;2023-02-28T09:34:03;12.90;;;6.90;;
77415;SDS011;66489;49.230;8.520;2023-02-28T09:36:30;12.02;;;6.63;;
77415;SDS011;66489;49.230;8.520;2023-02-28T09:39:10;12.10;;;6.50;;
77415;SDS011;66489;49.230;8.520;2023-02-28T09:41:39;11.95;;;6.65;;
77415;SDS011;66489;49.230;8.520;2023-02-28T09:44:16;13.20;;;6.22;;
77415;SDS011;66489;49.230;8.520;2023-02-28T09:47:00;11.48;;;6.25;;
77415;SDS011;66489;49.230;8.520;2023-02-28T09:49:34;12.60;;;6.38;;
77415;SDS011;66489;49.230;8.520;2023-02-28T09:52:21;11.80;;;6.90;;
77415;SDS011;66489;49.230;8.520;2023-02-28T09:54:50;10.70;;;6.32;;
77415;SDS011;66489;49.230;8.520;2023-02-28T09:57:32;11.40;;;6.53;;
77415;SDS011;66489;49.230;8.520;2023-02-28T10:00:05;12.25;;;6.60;;
77415;SDS011;66489;49.230;8.520;2023-02-28T10:02:48;12.77;;;6.50;;
77415;SDS011;66489;49.230;8.520;2023-02-28T10:05:23;11.20;;;6.47;;
77415;SDS011;66489;49.230;8.520;2023-02-28T10:08:00;10.77;;;6.45;;
77415;SDS011;66489;49.230;8.520;2023-02-28T10:10:41;12.30;;;6.72;;
77415;SDS011;66489;49.230;8.520;2023-02-28T10:13:21;11.52;;;7.07;;
77415;SDS011;66489;49.230;8.520;2023-02-28T10:15:53;11.45;;;6.53;;
77415;SDS011;66489;49.230;8.520;2023-02-28T10:18:24;10.43;;;6.80;;
77415;SDS011;66489;49.230;8.520;2023-02-28T10:20:53;10.05;;;6.47;;
77415;SDS011;66489;49.230;8.520;2023-02-28T10:25:59;11.10;;;6.88;;
77415;SDS011;66489;49.230;8.520;2023-02-28T10:28:36;11.25;;;6.75;;
77415;SDS011;66489;49.230;8.520;2023-02-28T10:31:03;9.63;;;6.38;;
77415;SDS011;66489;49.230;8.520;2023-02-28T10:33:30;10.80;;;6.50;;
77415;SDS011;66489;49.230;8.520;2023-02-28T10:35:58;14.90;;;7.25;;
77415;SDS011;66489;49.230;8.520;2023-02-28T10:38:26;10.82;;;6.80;;
77415;SDS011;66489;49.230;8.520;2023-02-28T10:43:37;11.98;;;7.03;;
77415;SDS011;66489;49.230;8.520;2023-02-28T10:51:13;13.45;;;6.97;;
77415;SDS011;66489;49.230;8.520;2023-02-28T10:53:51;11.90;;;7.47;;
77415;SDS011;66489;49.230;8.520;2023-02-28T10:56:28;12.02;;;7.15;;
77415;SDS011;66489;49.230;8.520;2023-02-28T11:06:59;11.20;;;6.88;;
77415;SDS011;66489;49.230;8.520;2023-02-28T11:09:33;12.75;;;8.25;;
77415;SDS011;66489;49.230;8.520;2023-02-28T11:12:04;14.57;;;8.23;;
77415;SDS011;66489;49.230;8.520;2023-02-28T11:14:35;12.15;;;7.43;;
77415;SDS011;66489;49.230;8.520;2023-02-28T11:17:22;12.98;;;8.02;;
77415;SDS011;66489;49.230;8.520;2023-02-28T11:19:51;13.35;;;7.45;;
77415;SDS011;66489;49.230;8.520;2023-02-28T11:22:30;11.55;;;6.95;;
77415;SDS011;66489;49.230;8.520;2023-02-28T11:24:59;13.43;;;7.60;;
77415;SDS011;66489;49.230;8.520;2023-02-28T11:29:59;12.50;;;6.97;;
77415;SDS011;66489;49.230;8.520;2023-02-28T11:32:27;12.30;;;7.30;;
77415;SDS011;66489;49.230;8.520;2023-02-28T11:37:37;11.73;;;7.20;;
77415;SDS011;66489;49.230;8.520;2023-02-28T11:40:18;11.65;;;7.10;;
77415;SDS011;66489;49.230;8.520;2023-02-28T11:42:48;11.38;;;7.60;;
77415;SDS011;66489;49.230;8.520;2023-02-28T11:45:42;13.85;;;8.77;;
77415;SDS011;66489;49.230;8.520;2023-02-28T11:48:22;16.15;;;9.57;;
77415;SDS011;66489;49.230;8.520;2023-02-28T11:56:47;11.88;;;7.90;;
77415;SDS011;66489;49.230;8.520;2023-02-28T12:10:02;10.88;;;7.38;;
77415;SDS011;66489;49.230;8.520;2023-02-28T12:15:12;11.88;;;7.55;;
77415;SDS011;66489;49.230;8.520;2023-02-28T12:20:37;11.18;;;7.10;;
77415;SDS011;66489;49.230;8.520;2023-02-28T12:28:28;11.40;;;7.38;;
77415;SDS011;66489;49.230;8.520;2023-02-28T12:31:32;12.32;;;7.55;;
77415;SDS011;66489;49.230;8.520;2023-02-28T12:33:51;11.77;;;7.97;;
77415;SDS011;66489;49.230;8.520;2023-02-28T12:36:20;12.77;;;7.80;;
77415;SDS011;66489;49.230;8.520;2023-02-28T12:38:53;13.07;;;8.27;;
77415;SDS011;66489;49.230;8.520;2023-02-28T12:41:33;15.25;;;7.93;;
77415;SDS011;66489;49.230;8.520;2023-02-28T12:44:04;13.02;;;7.90;;
77415;SDS011;66489;49.230;8.520;2023-02-28T12:46:54;10.90;;;7.57;;
77415;SDS011;66489;49.230;8.520;2023-02-28T12:49:24;11.48;;;7.68;;
77415;SDS011;66489;49.230;8.520;2023-02-28T12:51:56;12.10;;;8.00;;
77415;SDS011;66489;49.230;8.520;2023-02-28T12:54:48;12.57;;;8.18;;
77415;SDS011;66489;49.230;8.520;2023-02-28T12:57:38;11.55;;;7.80;;
77415;SDS011;66489;49.230;8.520;2023-02-28T13:02:47;12.95;;;8.65;;
77415;SDS011;66489;49.230;8.520;2023-02-28T13:05:23;13.73;;;8.10;;
77415;SDS011;66489;49.230;8.520;2023-02-28T13:10:57;12.32;;;8.35;;
77415;SDS011;66489;49.230;8.520;2023-02-28T13:13:24;11.32;;;7.93;;
77415;SDS011;66489;49.230;8.520;2023-02-28T13:18:37;12.45;;;8.25;;
77415;SDS011;66489;49.230;8.520;2023-02-28T13:21:09;11.13;;;8.18;;
77415;SDS011;66489;49.230;8.520;2023-02-28T13:34:28;17.38;;;8.45;;
77415;SDS011;66489;49.230;8.520;2023-02-28T13:47:53;12.52;;;8.38;;
77415;SDS011;66489;49.230;8.520;2023-02-28T13:56:10;11.77;;;8.30;;
77415;SDS011;66489;49.230;8.520;2023-02-28T14:01:26;12.77;;;8.80;;
77415;SDS011;66489;49.230;8.520;2023-02-28T14:06:51;15.27;;;9.77;;
77415;SDS011;66489;49.230;8.520;2023-02-28T14:11:52;14.25;;;9.60;;
77415;SDS011;66489;49.230;8.520;2023-02-28T14:17:05;11.77;;;8.05;;
77415;SDS011;66489;49.230;8.520;2023-02-28T14:19:32;13.00;;;8.50;;
77415;SDS011;66489;49.230;8.520;2023-02-28T14:25:45;11.43;;;8.38;;
77415;SDS011;66489;49.230;8.520;2023-02-28T14:30:57;13.48;;;8.95;;
77415;SDS011;66489;49.230;8.520;2023-02-28T14:33:30;12.77;;;8.38;;
77415;SDS011;66489;49.230;8.520;2023-02-28T14:38:43;13.23;;;8.70;;
77415;SDS011;66489;49.230;8.520;2023-02-28T14:41:14;12.23;;;8.55;;
77415;SDS011;66489;49.230;8.520;2023-02-28T14:43:57;13.80;;;9.07;;
77415;SDS011;66489;49.230;8.520;2023-02-28T14:46:43;13.15;;;8.73;;
77415;SDS011;66489;49.230;8.520;2023-02-28T14:49:21;13.00;;;8.70;;
77415;SDS011;66489;49.230;8.520;2023-02-28T14:51:50;12.02;;;8.48;;
77415;SDS011;66489;49.230;8.520;2023-02-28T14:54:18;12.27;;;8.60;;
77415;SDS011;66489;49.230;8.520;2023-02-28T14:56:50;12.20;;;7.85;;
77415;SDS011;66489;49.230;8.520;2023-02-28T14:59:30;13.48;;;8.80;;
77415;SDS011;66489;49.230;8.520;2023-02-28T15:02:15;14.23;;;8.70;;
77415;SDS011;66489;49.230;8.520;2023-02-28T15:04:42;12.15;;;8.23;;
77415;SDS011;66489;49.230;8.520;2023-02-28T15:09:36;13.68;;;8.65;;
77415;SDS011;66489;49.230;8.520;2023-02-28T15:12:03;13.82;;;8.68;;
77415;SDS011;66489;49.230;8.520;2023-02-28T15:14:30;15.18;;;9.32;;
77415;SDS011;66489;49.230;8.520;2023-02-28T15:16:59;14.00;;;9.07;;
77415;SDS011;66489;49.230;8.520;2023-02-28T15:19:36;13.48;;;8.98;;
77415;SDS011;66489;49.230;8.520;2023-02-28T15:22:17;15.65;;;9.18;;
77415;SDS011;66489;49.230;8.520;2023-02-28T15:24:48;13.00;;;8.27;;
77415;SDS011;66489;49.230;8.520;2023-02-28T15:27:20;13.20;;;7.70;;
77415;SDS011;66489;49.230;8.520;2023-02-28T15:29:49;13.50;;;8.60;;
77415;SDS011;66489;49.230;8.520;2023-02-28T15:34:48;14.52;;;9.20;;
77415;SDS011;66489;49.230;8.520;2023-02-28T15:37:28;13.27;;;8.57;;
77415;SDS011;66489;49.230;8.520;2023-02-28T15:39:57;13.43;;;9.10;;
77415;SDS011;66489;49.230;8.520;2023-02-28T15:42:31;14.15;;;9.07;;
77415;SDS011;66489;49.230;8.520;2023-02-28T15:44:57;11.75;;;8.15;;
77415;SDS011;66489;49.230;8.520;2023-02-28T15:47:26;15.43;;;8.60;;
77415;SDS011;66489;49.230;8.520;2023-02-28T15:49:56;12.77;;;8.85;;
77415;SDS011;66489;49.230;8.520;2023-02-28T15:52:34;15.43;;;9.00;;
77415;SDS011;66489;49.230;8.520;2023-02-28T15:57:50;14.02;;;8.77;;
77415;SDS011;66489;49.230;8.520;2023-02-28T16:02:46;15.48;;;9.52;;
77415;SDS011;66489;49.230;8.520;2023-02-28T16:07:54;15.68;;;9.00;;
77415;SDS011;66489;49.230;8.520;2023-02-28T16:10:22;13.63;;;8.75;;
77415;SDS011;66489;49.230;8.520;2023-02-28T16:12:55;14.23;;;8.68;;
77415;SDS011;66489;49.230;8.520;2023-02-28T16:15:27;12.70;;;8.57;;
77415;SDS011;66489;49.230;8.520;2023-02-28T16:17:55;14.25;;;8.32;;
77415;SDS011;66489;49.230;8.520;2023-02-28T16:20:24;13.75;;;8.70;;
77415;SDS011;66489;49.230;8.520;2023-02-28T16:22:53;14.55;;;8.85;;
77415;SDS011;66489;49.230;8.520;2023-02-28T16:25:21;16.60;;;9.10;;
77415;SDS011;66489;49.230;8.520;2023-02-28T16:28:00;13.73;;;8.70;;
77415;SDS011;66489;49.230;8.520;2023-02-28T16:30:27;17.60;;;10.10;;
77415;SDS011;66489;49.230;8.520;2023-02-28T16:32:55;18.50;;;10.90;;
77415;SDS011;66489;49.230;8.520;2023-02-28T16:35:21;15.63;;;9.40;;
77415;SDS011;66489;49.230;8.520;2023-02-28T16:37:50;15.93;;;9.00;;
77415;SDS011;66489;49.230;8.520;2023-02-28T16:40:23;14.93;;;9.00;;
77415;SDS011;66489;49.230;8.520;2023-02-28T16:42:52;14.15;;;9.48;;
77415;SDS011;66489;49.230;8.520;2023-02-28T16:45:24;14.02;;;8.77;;
77415;SDS011;66489;49.230;8.520;2023-02-28T16:47:52;14.02;;;8.55;;
77415;SDS011;66489;49.230;8.520;2023-02-28T16:50:23;12.77;;;8.13;;
77415;SDS011;66489;49.230;8.520;2023-02-28T16:52:51;14.13;;;8.63;;
77415;SDS011;66489;49.230;8.520;2023-02-28T16:55:21;13.93;;;8.52;;
77415;SDS011;66489;49.230;8.520;2023-02-28T16:57:53;15.55;;;9.25;;
77415;SDS011;66489;49.230;8.520;2023-02-28T17:00:21;13.73;;;8.60;;
77415;SDS011;66489;49.230;8.520;2023-02-28T17:02:48;15.13;;;8.48;;
77415;SDS011;66489;49.230;8.520;2023-02-28T17:05:15;13.68;;;8.60;;
77415;SDS011;66489;49.230;8.520;2023-02-28T17:07:42;13.35;;;7.93;;
77415;SDS011;66489;49.230;8.520;2023-02-28T17:10:13;13.30;;;8.07;;
77415;SDS011;66489;49.230;8.520;2023-02-28T17:12:40;13.98;;;8.38;;
77415;SDS011;66489;49.230;8.520;2023-02-28T17:15:07;15.73;;;9.02;;
77415;SDS011;66489;49.230;8.520;2023-02-28T17:17:35;14.20;;;9.05;;
77415;SDS011;66489;49.230;8.520;2023-02-28T17:20:02;13.77;;;8.75;;
77415;SDS011;66489;49.230;8.520;2023-02-28T17:22:29;14.35;;;8.63;;
77415;SDS011;66489;49.230;8.520;2023-02-28T17:24:55;14.20;;;8.18;;
77415;SDS011;66489;49.230;8.520;2023-02-28T17:27:22;15.95;;;8.98;;
77415;SDS011;66489;49.230;8.520;2023-02-28T17:29:48;13.10;;;8.02;;
77415;SDS011;66489;49.230;8.520;2023-02-28T17:32:15;14.95;;;8.73;;
77415;SDS011;66489;49.230;8.520;2023-02-28T17:34:43;13.95;;;8.18;;
77415;SDS011;66489;49.230;8.520;2023-02-28T17:37:12;13.35;;;7.60;;
77415;SDS011;66489;49.230;8.520;2023-02-28T17:39:39;13.65;;;8.02;;
77415;SDS011;66489;49.230;8.520;2023-02-28T17:42:05;15.98;;;8.50;;
77415;SDS011;66489;49.230;8.520;2023-02-28T17:44:32;14.02;;;8.30;;
77415;SDS011;66489;49.230;8.520;2023-02-28T17:46:58;14.57;;;8.07;;
77415;SDS011;66489;49.230;8.520;2023-02-28T17:49:26;13.18;;;8.13;;
77415;SDS011;66489;49.230;8.520;2023-02-28T17:51:53;15.88;;;9.55;;
77415;SDS011;66489;49.230;8.520;2023-02-28T17:54:22;14.87;;;8.30;;
77415;SDS011;66489;49.230;8.520;2023-02-28T17:56:51;15.20;;;8.82;;
77415;SDS011;66489;49.230;8.520;2023-02-28T17:59:18;12.38;;;7.78;;
77415;SDS011;66489;49.230;8.520;2023-02-28T18:01:45;14.00;;;8.20;;
77415;SDS011;66489;49.230;8.520;2023-02-28T18:04:12;13.30;;;7.93;;
77415;SDS011;66489;49.230;8.520;2023-02-28T18:06:40;14.35;;;8.15;;
77415;SDS011;66489;49.230;8.520;2023-02-28T18:09:18;12.63;;;8.38;;
77415;SDS011;66489;49.230;8.520;2023-02-28T18:11:48;14.75;;;8.18;;
77415;SDS011;66489;49.230;8.520;2023-02-28T18:14:19;14.32;;;8.75;;
77415;SDS011;66489;49.230;8.520;2023-02-28T18:17:06;15.65;;;7.93;;
77415;SDS011;66489;49.230;8.520;2023-02-28T18:19:33;14.10;;;8.88;;
77415;SDS011;66489;49.230;8.520;2023-02-28T18:22:00;14.60;;;8.40;;
77415;SDS011;66489;49.230;8.520;2023-02-28T18:24:27;14.07;;;8.27;;
77415;SDS011;66489;49.230;8.520;2023-02-28T18:26:54;12.75;;;8.15;;
77415;SDS011;66489;49.230;8.520;2023-02-28T18:29:22;16.80;;;9.05;;
77415;SDS011;66489;49.230;8.520;2023-02-28T18:31:50;16.20;;;8.90;;
77415;SDS011;66489;49.230;8.520;2023-02-28T18:34:18;13.77;;;8.73;;
77415;SDS011;66489;49.230;8.520;2023-02-28T18:36:46;14.75;;;8.15;;
77415;SDS011;66489;49.230;8.520;2023-02-28T18:39:14;14.82;;;8.25;;
77415;SDS011;66489;49.230;8.520;2023-02-28T18:41:41;17.55;;;9.35;;
77415;SDS011;66489;49.230;8.520;2023-02-28T18:44:08;16.73;;;9.35;;
77415;SDS011;66489;49.230;8.520;2023-02-28T18:46:45;16.50;;;8.73;;
77415;SDS011;66489;49.230;8.520;2023-02-28T18:49:12;15.00;;;9.18;;
77415;SDS011;66489;49.230;8.520;2023-02-28T18:51:39;14.82;;;8.60;;
77415;SDS011;66489;49.230;8.520;2023-02-28T18:54:10;16.85;;;9.30;;
77415;SDS011;66489;49.230;8.520;2023-02-28T18:56:37;12.95;;;8.23;;
77415;SDS011;66489;49.230;8.520;2023-02-28T18:59:03;14.25;;;8.38;;
77415;SDS011;66489;49.230;8.520;2023-02-28T19:01:30;13.90;;;8.40;;
77415;SDS011;66489;49.230;8.520;2023-02-28T19:03:58;13.73;;;7.88;;
77415;SDS011;66489;49.230;8.520;2023-02-28T19:06:29;15.98;;;8.82;;
77415;SDS011;66489;49.230;8.520;2023-02-28T19:08:58;13.15;;;7.80;;
77415;SDS011;66489;49.230;8.520;2023-02-28T19:11:26;15.30;;;8.25;;
77415;SDS011;66489;49.230;8.520;2023-02-28T19:13:53;16.17;;;8.40;;
77415;SDS011;66489;49.230;8.520;2023-02-28T19:16:20;15.65;;;8.57;;
77415;SDS011;66489;49.230;8.520;2023-02-28T19:18:47;14.73;;;8.38;;
77415;SDS011;66489;49.230;8.520;2023-02-28T19:21:15;14.85;;;8.48;;
77415;SDS011;66489;49.230;8.520;2023-02-28T19:23:42;14.07;;;8.05;;
77415;SDS011;66489;49.230;8.520;2023-02-28T19:26:20;13.02;;;7.70;;
77415;SDS011;66489;49.230;8.520;2023-02-28T19:28:48;13.15;;;8.20;;
77415;SDS011;66489;49.230;8.520;2023-02-28T19:31:19;14.35;;;8.10;;
77415;SDS011;66489;49.230;8.520;2023-02-28T19:33:48;14.20;;;8.70;;
77415;SDS011;66489;49.230;8.520;2023-02-28T19:36:15;15.40;;;8.30;;
77415;SDS011;66489;49.230;8.520;2023-02-28T19:38:44;14.55;;;8.27;;
77415;SDS011;66489;49.230;8.520;2023-02-28T19:41:12;14.82;;;8.32;;
77415;SDS011;66489;49.230;8.520;2023-02-28T19:43:40;15.20;;;8.82;;
77415;SDS011;66489;49.230;8.520;2023-02-28T19:46:07;16.00;;;9.02;;
77415;SDS011;66489;49.230;8.520;2023-02-28T19:48:36;14.25;;;9.00;;
77415;SDS011;66489;49.230;8.520;2023-02-28T19:51:23;14.88;;;8.73;;
77415;SDS011;66489;49.230;8.520;2023-02-28T19:53:50;15.45;;;8.43;;
77415;SDS011;66489;49.230;8.520;2023-02-28T19:56:17;14.23;;;8.38;;
77415;SDS011;66489;49.230;8.520;2023-02-28T19:58:44;14.35;;;8.63;;
77415;SDS011;66489;49.230;8.520;2023-02-28T20:01:12;14.68;;;8.25;;
77415;SDS011;66489;49.230;8.520;2023-02-28T20:06:08;15.05;;;8.35;;
77415;SDS011;66489;49.230;8.520;2023-02-28T20:08:36;17.70;;;9.67;;
77415;SDS011;66489;49.230;8.520;2023-02-28T20:11:13;17.77;;;9.57;;
77415;SDS011;66489;49.230;8.520;2023-02-28T20:13:43;17.75;;;10.13;;
77415;SDS011;66489;49.230;8.520;2023-02-28T20:16:12;14.98;;;8.82;;
77415;SDS011;66489;49.230;8.520;2023-02-28T20:18:39;16.98;;;8.82;;
77415;SDS011;66489;49.230;8.520;2023-02-28T20:21:07;15.27;;;8.50;;
77415;SDS011;66489;49.230;8.520;2023-02-28T20:23:36;15.25;;;8.55;;
77415;SDS011;66489;49.230;8.520;2023-02-28T20:26:03;16.07;;;8.50;;
77415;SDS011;66489;49.230;8.520;2023-02-28T20:28:30;15.15;;;8.68;;
77415;SDS011;66489;49.230;8.520;2023-02-28T20:30:57;15.82;;;8.48;;
77415;SDS011;66489;49.230;8.520;2023-02-28T20:33:23;16.70;;;8.98;;
77415;SDS011;66489;49.230;8.520;2023-02-28T20:35:57;15.07;;;8.50;;
77415;SDS011;66489;49.230;8.520;2023-02-28T20:38:25;16.70;;;8.63;;
77415;SDS011;66489;49.230;8.520;2023-02-28T20:40:59;16.10;;;8.35;;
77415;SDS011;66489;49.230;8.520;2023-02-28T20:43:26;15.48;;;9.15;;
77415;SDS011;66489;49.230;8.520;2023-02-28T20:45:53;15.02;;;8.68;;
77415;SDS011;66489;49.230;8.520;2023-02-28T20:48:23;16.67;;;8.77;;
77415;SDS011;66489;49.230;8.520;2023-02-28T20:50:51;14.40;;;8.63;;
77415;SDS011;66489;49.230;8.520;2023-02-28T20:53:19;16.30;;;8.45;;
77415;SDS011;66489;49.230;8.520;2023-02-28T20:58:24;16.05;;;8.88;;
77415;SDS011;66489;49.230;8.520;2023-02-28T21:01:02;14.02;;;8.00;;
77415;SDS011;66489;49.230;8.520;2023-02-28T21:03:29;14.60;;;7.95;;
77415;SDS011;66489;49.230;8.520;2023-02-28T21:05:58;14.85;;;8.38;;
77415;SDS011;66489;49.230;8.520;2023-02-28T21:08:26;16.13;;;8.65;;
77415;SDS011;66489;49.230;8.520;2023-02-28T21:10:53;17.42;;;8.23;;
77415;SDS011;66489;49.230;8.520;2023-02-28T21:13:19;13.85;;;8.30;;
77415;SDS011;66489;49.230;8.520;2023-02-28T21:15:46;16.83;;;8.77;;
77415;SDS011;66489;49.230;8.520;2023-02-28T21:18:13;16.45;;;8.23;;
77415;SDS011;66489;49.230;8.520;2023-02-28T21:20:40;14.35;;;7.95;;
77415;SDS011;66489;49.230;8.520;2023-02-28T21:23:07;15.90;;;8.98;;
77415;SDS011;66489;49.230;8.520;2023-02-28T21:25:34;15.88;;;8.60;;
77415;SDS011;66489;49.230;8.520;2023-02-28T21:28:01;15.23;;;8.85;;
77415;SDS011;66489;49.230;8.520;2023-02-28T21:30:29;16.63;;;8.15;;
77415;SDS011;66489;49.230;8.520;2023-02-28T21:32:55;15.95;;;8.68;;
77415;SDS011;66489;49.230;8.520;2023-02-28T21:35:23;14.80;;;8.55;;
77415;SDS011;66489;49.230;8.520;2023-02-28T21:37:49;16.27;;;8.05;;
77415;SDS011;66489;49.230;8.520;2023-02-28T21:40:16;15.55;;;7.68;;
77415;SDS011;66489;49.230;8.520;2023-02-28T21:42:42;14.93;;;8.02;;
77415;SDS011;66489;49.230;8.520;2023-02-28T21:45:09;15.10;;;8.40;;
77415;SDS011;66489;49.230;8.520;2023-02-28T21:47:36;16.75;;;8.80;;
77415;SDS011;66489;49.230;8.520;2023-02-28T21:50:03;14.30;;;8.13;;
77415;SDS011;66489;49.230;8.520;2023-02-28T21:52:29;14.13;;;7.82;;
77415;SDS011;66489;49.230;8.520;2023-02-28T21:54:56;13.45;;;7.47;;
77415;SDS011;66489;49.230;8.520;2023-02-28T21:57:23;16.42;;;8.13;;
77415;SDS011;66489;49.230;8.520;2023-02-28T21:59:49;16.27;;;8.23;;
